Time;durP1;ratioP1;P1;durP2;ratioP2;P2;SDS_P1;SDS_P2;PMS_P1;PMS_P2;Temp;Humidity;BMP_temperature;BMP_pressure;BME280_temperature;BME280_humidity;BME280_pressure;Samples;Min_cycle;Max_cycle;Signal;HPM_P1;HPM_P2
2022/11/02 00:00:53;;;;;;;0.00;0.00;;;;;;;;;;5039605;28;20653;-77
2022/11/02 00:03:22;;;;;;;0.00;0.00;;;;;;;;;;5040550;28;20661;-77
2022/11/02 00:05:50;;;;;;;0.00;0.00;;;;;;;;;;5038206;28;20752;-77
2022/11/02 00:08:17;;;;;;;0.00;0.00;;;;;;;;;;5040889;28;20632;-77
2022/11/02 00:10:44;;;;;;;0.10;0.10;;;;;;;;;;5032319;28;20657;-77
2022/11/02 00:13:12;;;;;;;0.10;0.10;;;;;;;;;;5040091;28;20619;-76
2022/11/02 00:15:39;;;;;;;0.10;0.10;;;;;;;;;;5048770;28;20629;-77
2022/11/02 00:18:10;;;;;;;0.10;0.10;;;;;;;;;;5034541;28;20625;-76
2022/11/02 00:20:40;;;;;;;0.00;0.00;;;;;;;;;;5034839;28;20622;-77
2022/11/02 00:23:09;;;;;;;0.10;0.10;;;;;;;;;;5039223;28;20661;-77
2022/11/02 00:25:39;;;;;;;0.00;0.00;;;;;;;;;;5038095;28;20612;-76
2022/11/02 00:28:06;;;;;;;0.10;0.10;;;;;;;;;;5039664;28;20663;-76
2022/11/02 00:30:34;;;;;;;0.10;0.10;;;;;;;;;;5038678;28;20634;-76
2022/11/02 00:33:01;;;;;;;0.00;0.00;;;;;;;;;;5039348;28;20632;-76
2022/11/02 00:35:29;;;;;;;0.10;0.10;;;;;;;;;;5038999;28;20713;-76
2022/11/02 00:37:58;;;;;;;0.00;0.00;;;;;;;;;;5037729;28;20617;-76
2022/11/02 00:40:26;;;;;;;0.03;0.03;;;;;;;;;;5029977;28;21209;-76
2022/11/02 00:42:53;;;;;;;0.10;0.10;;;;;;;;;;5038862;28;20661;-76
2022/11/02 00:45:22;;;;;;;0.10;0.10;;;;;;;;;;5047094;28;20637;-77
2022/11/02 00:47:50;;;;;;;0.10;0.10;;;;;;;;;;5029214;28;20720;-76
2022/11/02 00:50:19;;;;;;;0.00;0.00;;;;;;;;;;5038996;28;20675;-76
2022/11/02 00:52:46;;;;;;;0.00;0.00;;;;;;;;;;5039017;28;20653;-77
2022/11/02 00:55:16;;;;;;;0.10;0.10;;;;;;;;;;5039155;28;20708;-77
2022/11/02 00:57:45;;;;;;;0.10;0.10;;;;;;;;;;5037010;28;21199;-76
2022/11/02 01:00:13;;;;;;;0.10;0.10;;;;;;;;;;5037753;28;20641;-77
2022/11/02 01:02:42;;;;;;;0.10;0.10;;;;;;;;;;5044814;28;20767;-76
2022/11/02 01:05:10;;;;;;;0.00;0.00;;;;;;;;;;5037767;28;20625;-76
2022/11/02 01:07:38;;;;;;;0.00;0.00;;;;;;;;;;5036536;28;20633;-76
2022/11/02 01:10:06;;;;;;;0.10;0.10;;;;;;;;;;5037547;28;20649;-76
2022/11/02 01:12:37;;;;;;;0.10;0.10;;;;;;;;;;5038047;28;20661;-76
2022/11/02 01:15:05;;;;;;;0.10;0.10;;;;;;;;;;5047509;28;20633;-76
2022/11/02 01:17:32;;;;;;;0.10;0.10;;;;;;;;;;5037035;28;20989;-76
2022/11/02 01:20:00;;;;;;;0.00;0.00;;;;;;;;;;5038572;28;20657;-76
2022/11/02 01:22:27;;;;;;;0.10;0.10;;;;;;;;;;5036222;28;21217;-75
2022/11/02 01:24:55;;;;;;;0.10;0.10;;;;;;;;;;5037383;28;20622;-76
2022/11/02 01:27:22;;;;;;;0.10;0.10;;;;;;;;;;5038305;28;20636;-76
2022/11/02 01:29:51;;;;;;;0.00;0.00;;;;;;;;;;5035489;28;20629;-76
2022/11/02 01:32:18;;;;;;;0.00;0.00;;;;;;;;;;5038182;28;20669;-76
2022/11/02 01:34:46;;;;;;;0.07;0.07;;;;;;;;;;5047503;28;20660;-76
2022/11/02 01:37:15;;;;;;;0.00;0.00;;;;;;;;;;5047057;28;20719;-76
2022/11/02 01:39:43;;;;;;;0.00;0.00;;;;;;;;;;5037370;28;20622;-76
2022/11/02 01:42:17;;;;;;;0.00;0.00;;;;;;;;;;5049071;28;20684;-75
2022/11/02 01:44:45;;;;;;;0.10;0.10;;;;;;;;;;5034346;28;20621;-76
2022/11/02 01:47:19;;;;;;;0.10;0.10;;;;;;;;;;5031945;28;20621;-75
2022/11/02 01:49:48;;;;;;;0.00;0.00;;;;;;;;;;5036107;28;20712;-77
2022/11/02 01:52:18;;;;;;;0.00;0.00;;;;;;;;;;5027223;28;20665;-76
2022/11/02 01:54:48;;;;;;;0.00;0.00;;;;;;;;;;5036862;28;20633;-76
2022/11/02 01:57:20;;;;;;;0.10;0.10;;;;;;;;;;5041285;28;20622;-77
2022/11/02 01:59:51;;;;;;;0.00;0.00;;;;;;;;;;5047552;28;20627;-76
2022/11/02 02:02:21;;;;;;;0.10;0.10;;;;;;;;;;5040011;28;20637;-78
2022/11/02 02:04:50;;;;;;;0.10;0.10;;;;;;;;;;5036489;28;21182;-76
2022/11/02 02:07:18;;;;;;;0.10;0.10;;;;;;;;;;5037854;28;20631;-76
2022/11/02 02:09:45;;;;;;;0.10;0.10;;;;;;;;;;5036583;28;20629;-77
2022/11/02 02:12:14;;;;;;;0.10;0.10;;;;;;;;;;5044871;28;20668;-76
2022/11/02 02:14:43;;;;;;;0.10;0.10;;;;;;;;;;5037483;28;20634;-76
2022/11/02 02:17:21;;;;;;;0.10;0.10;;;;;;;;;;5043787;28;20657;-75
2022/11/02 02:19:54;;;;;;;0.10;0.10;;;;;;;;;;5037774;28;20619;-76
2022/11/02 02:22:35;;;;;;;0.10;0.10;;;;;;;;;;5033350;28;21035;-76
2022/11/02 02:25:10;;;;;;;0.00;0.00;;;;;;;;;;5038440;28;20611;-76
2022/11/02 02:27:51;;;;;;;0.10;0.10;;;;;;;;;;5035375;28;20625;-77
2022/11/02 02:30:18;;;;;;;0.10;0.10;;;;;;;;;;5054495;28;20755;-76
2022/11/02 02:32:48;;;;;;;0.00;0.00;;;;;;;;;;5037622;28;20742;-76
2022/11/02 02:35:19;;;;;;;0.00;0.00;;;;;;;;;;5037042;28;20683;-75
2022/11/02 02:37:52;;;;;;;0.00;0.00;;;;;;;;;;5036300;28;20630;-76
2022/11/02 02:40:21;;;;;;;0.10;0.10;;;;;;;;;;5038599;28;20633;-76
2022/11/02 02:42:53;;;;;;;0.03;0.03;;;;;;;;;;5037125;28;20805;-77
2022/11/02 02:45:23;;;;;;;0.10;0.10;;;;;;;;;;5046060;28;20633;-77
2022/11/02 02:47:54;;;;;;;0.10;0.10;;;;;;;;;;5036003;28;20683;-76
2022/11/02 02:50:25;;;;;;;0.10;0.10;;;;;;;;;;5048806;28;21253;-77
2022/11/02 02:52:53;;;;;;;0.10;0.10;;;;;;;;;;5045372;28;21001;-77
2022/11/02 02:55:23;;;;;;;0.10;0.10;;;;;;;;;;5045014;28;21031;-76
2022/11/02 02:57:53;;;;;;;0.10;0.10;;;;;;;;;;5034756;28;20662;-75
2022/11/02 03:00:21;;;;;;;0.00;0.00;;;;;;;;;;5037175;28;20629;-76
2022/11/02 03:02:59;;;;;;;0.10;0.10;;;;;;;;;;5036317;28;21287;-75
2022/11/02 03:05:29;;;;;;;0.10;0.10;;;;;;;;;;5038146;28;20628;-76
2022/11/02 03:07:58;;;;;;;0.10;0.10;;;;;;;;;;5035453;28;20665;-76
2022/11/02 03:10:31;;;;;;;0.10;0.10;;;;;;;;;;5044355;28;20653;-75
2022/11/02 03:13:05;;;;;;;0.07;0.07;;;;;;;;;;5037670;28;20710;-75
2022/11/02 03:15:36;;;;;;;0.10;0.10;;;;;;;;;;5035628;28;20697;-76
2022/11/02 03:18:09;;;;;;;0.10;0.10;;;;;;;;;;5044775;28;20654;-76
2022/11/02 03:20:42;;;;;;;0.10;0.10;;;;;;;;;;5037146;28;20683;-76
2022/11/02 03:23:13;;;;;;;0.10;0.10;;;;;;;;;;5036989;28;20735;-76
2022/11/02 03:25:47;;;;;;;0.00;0.00;;;;;;;;;;5036151;28;20717;-76
2022/11/02 03:28:19;;;;;;;0.10;0.10;;;;;;;;;;5047924;28;20741;-76
2022/11/02 03:30:50;;;;;;;0.00;0.00;;;;;;;;;;5036388;28;20740;-75
2022/11/02 03:33:20;;;;;;;0.00;0.00;;;;;;;;;;5048669;28;20704;-77
2022/11/02 03:35:51;;;;;;;0.10;0.10;;;;;;;;;;5046482;28;20626;-77
2022/11/02 03:38:20;;;;;;;0.07;0.07;;;;;;;;;;5037229;28;20625;-76
2022/11/02 03:40:50;;;;;;;0.10;0.10;;;;;;;;;;5037887;28;20645;-77
2022/11/02 03:43:21;;;;;;;0.00;0.00;;;;;;;;;;5044954;28;20649;-77
2022/11/02 03:45:53;;;;;;;0.10;0.10;;;;;;;;;;5036982;28;20632;-79
2022/11/02 03:48:22;;;;;;;0.10;0.10;;;;;;;;;;5036143;28;20618;-76
2022/11/02 03:50:51;;;;;;;0.03;0.03;;;;;;;;;;5035494;28;21389;-76
2022/11/02 03:53:23;;;;;;;0.10;0.10;;;;;;;;;;5029814;28;20614;-76
2022/11/02 03:55:54;;;;;;;0.00;0.00;;;;;;;;;;5035243;28;20622;-76
2022/11/02 03:58:22;;;;;;;0.03;0.03;;;;;;;;;;5039522;28;20612;-78
2022/11/02 04:00:52;;;;;;;0.10;0.10;;;;;;;;;;5039524;28;20640;-77
2022/11/02 04:03:22;;;;;;;0.07;0.07;;;;;;;;;;5041862;28;20664;-78
2022/11/02 04:05:50;;;;;;;0.00;0.00;;;;;;;;;;5041429;28;20651;-76
2022/11/02 04:08:28;;;;;;;0.10;0.10;;;;;;;;;;5040806;28;20625;-78
2022/11/02 04:16:37;;;;;;;0.10;0.10;;;;;;;;;;5033956;28;20661;-77
2022/11/02 04:19:27;;;;;;;0.07;0.07;;;;;;;;;;5040773;28;20704;-77
2022/11/02 04:27:33;;;;;;;0.00;0.00;;;;;;;;;;5033237;28;20609;-76
2022/11/02 04:30:03;;;;;;;0.10;0.10;;;;;;;;;;5039645;28;20621;-78
2022/11/02 04:35:24;;;;;;;0.10;0.10;;;;;;;;;;5039727;28;20613;-78
2022/11/02 04:40:39;;;;;;;0.10;0.10;;;;;;;;;;5033180;28;20624;-77
2022/11/02 04:43:06;;;;;;;0.00;0.00;;;;;;;;;;5041355;28;20614;-78
2022/11/02 04:45:36;;;;;;;0.10;0.10;;;;;;;;;;5030854;28;20640;-77
2022/11/02 04:48:05;;;;;;;0.00;0.00;;;;;;;;;;5039675;28;20634;-77
2022/11/02 04:50:33;;;;;;;0.00;0.00;;;;;;;;;;5039968;28;20622;-78
2022/11/02 04:53:02;;;;;;;0.00;0.00;;;;;;;;;;5039780;28;20614;-78
2022/11/02 04:55:32;;;;;;;0.10;0.10;;;;;;;;;;5040337;28;20628;-78
2022/11/02 04:58:00;;;;;;;0.10;0.10;;;;;;;;;;5037196;28;20721;-76
2022/11/02 05:00:28;;;;;;;0.03;0.03;;;;;;;;;;5040552;28;20626;-76
2022/11/02 05:02:57;;;;;;;0.10;0.10;;;;;;;;;;5038898;28;20646;-77
2022/11/02 05:05:26;;;;;;;0.10;0.10;;;;;;;;;;5039045;28;21019;-77
2022/11/02 05:07:57;;;;;;;0.10;0.10;;;;;;;;;;5039617;28;20695;-77
2022/11/02 05:10:24;;;;;;;0.10;0.10;;;;;;;;;;5039347;28;20685;-76
2022/11/02 05:12:57;;;;;;;0.07;0.07;;;;;;;;;;5039659;28;20656;-76
2022/11/02 05:15:26;;;;;;;0.00;0.00;;;;;;;;;;5039661;28;20631;-77
2022/11/02 05:17:54;;;;;;;0.00;0.00;;;;;;;;;;5033451;28;20632;-77
2022/11/02 05:20:23;;;;;;;0.00;0.00;;;;;;;;;;5040704;28;20617;-77
2022/11/02 05:22:50;;;;;;;0.10;0.10;;;;;;;;;;5041040;28;20637;-77
2022/11/02 05:25:19;;;;;;;0.00;0.00;;;;;;;;;;5038804;28;20711;-76
2022/11/02 05:27:47;;;;;;;0.07;0.07;;;;;;;;;;5039234;28;20633;-77
2022/11/02 05:30:15;;;;;;;0.00;0.00;;;;;;;;;;5040330;28;20757;-78
2022/11/02 05:32:44;;;;;;;0.00;0.00;;;;;;;;;;5037539;28;20665;-77
2022/11/02 05:35:12;;;;;;;0.10;0.10;;;;;;;;;;5036425;28;20729;-76
2022/11/02 05:37:41;;;;;;;0.10;0.10;;;;;;;;;;5040166;28;20630;-76
2022/11/02 05:40:09;;;;;;;0.00;0.00;;;;;;;;;;5038844;28;20661;-75
2022/11/02 05:42:37;;;;;;;0.10;0.10;;;;;;;;;;5039109;28;20761;-76
2022/11/02 05:45:05;;;;;;;0.00;0.00;;;;;;;;;;5038745;28;20668;-76
2022/11/02 05:47:34;;;;;;;0.00;0.00;;;;;;;;;;5025750;28;21149;-76
2022/11/02 05:50:01;;;;;;;0.00;0.00;;;;;;;;;;5037280;28;20629;-76
2022/11/02 05:52:29;;;;;;;0.10;0.10;;;;;;;;;;5037683;28;20657;-77
2022/11/02 05:54:58;;;;;;;0.10;0.10;;;;;;;;;;5038151;28;20742;-77
2022/11/02 05:57:25;;;;;;;0.00;0.00;;;;;;;;;;5038414;28;20629;-76
2022/11/02 05:59:53;;;;;;;0.10;0.10;;;;;;;;;;5038368;28;21265;-77
2022/11/02 06:02:20;;;;;;;0.10;0.10;;;;;;;;;;5035703;28;21260;-76
2022/11/02 06:04:48;;;;;;;0.00;0.00;;;;;;;;;;5043270;28;20661;-77
2022/11/02 06:07:15;;;;;;;0.03;0.03;;;;;;;;;;5038221;28;21274;-78
2022/11/02 06:09:43;;;;;;;0.00;0.00;;;;;;;;;;5047834;28;21237;-77
2022/11/02 06:12:12;;;;;;;0.00;0.00;;;;;;;;;;5037989;28;20656;-77
2022/11/02 06:14:40;;;;;;;0.10;0.10;;;;;;;;;;5047664;28;20657;-77
2022/11/02 06:17:07;;;;;;;0.10;0.10;;;;;;;;;;5035591;28;20622;-76
2022/11/02 06:19:35;;;;;;;0.10;0.10;;;;;;;;;;5037117;28;20618;-76
2022/11/02 06:22:03;;;;;;;0.00;0.00;;;;;;;;;;5034438;28;20685;-76
2022/11/02 06:24:30;;;;;;;0.10;0.10;;;;;;;;;;5036953;28;20672;-76
2022/11/02 06:26:58;;;;;;;0.00;0.00;;;;;;;;;;5036330;28;20618;-76
2022/11/02 06:29:27;;;;;;;0.00;0.00;;;;;;;;;;5028968;28;20628;-76
2022/11/02 06:31:54;;;;;;;0.10;0.10;;;;;;;;;;5036192;28;20669;-77
2022/11/02 06:34:22;;;;;;;0.00;0.00;;;;;;;;;;5039338;28;20618;-77
2022/11/02 06:36:49;;;;;;;0.10;0.10;;;;;;;;;;5032183;28;20725;-78
2022/11/02 06:39:17;;;;;;;0.00;0.00;;;;;;;;;;5043819;28;20632;-77
2022/11/02 06:41:44;;;;;;;0.07;0.07;;;;;;;;;;5027518;28;20665;-76
2022/11/02 06:44:12;;;;;;;0.00;0.00;;;;;;;;;;5036490;28;20697;-76
2022/11/02 06:46:41;;;;;;;0.10;0.10;;;;;;;;;;5034938;28;20653;-76
2022/11/02 06:49:09;;;;;;;0.00;0.00;;;;;;;;;;5036963;28;20630;-75
2022/11/02 06:51:36;;;;;;;0.10;0.10;;;;;;;;;;5035071;28;20649;-75
2022/11/02 06:54:03;;;;;;;0.00;0.00;;;;;;;;;;5036729;28;20628;-75
2022/11/02 06:56:31;;;;;;;0.10;0.10;;;;;;;;;;5035479;28;20641;-75
2022/11/02 06:58:58;;;;;;;0.10;0.10;;;;;;;;;;5036016;28;20210;-76
2022/11/02 07:01:25;;;;;;;0.10;0.10;;;;;;;;;;5036063;28;20657;-75
2022/11/02 07:03:54;;;;;;;0.00;0.00;;;;;;;;;;5038448;28;20613;-76
2022/11/02 07:06:21;;;;;;;0.10;0.10;;;;;;;;;;5029724;28;20644;-75
2022/11/02 07:08:49;;;;;;;0.00;0.00;;;;;;;;;;5037099;28;20617;-76
2022/11/02 07:11:17;;;;;;;0.00;0.00;;;;;;;;;;5038094;28;20645;-76
2022/11/02 07:13:44;;;;;;;0.00;0.00;;;;;;;;;;5035922;28;20200;-76
2022/11/02 07:16:12;;;;;;;0.00;0.00;;;;;;;;;;5035624;28;20633;-76
2022/11/02 07:18:39;;;;;;;0.00;0.00;;;;;;;;;;5036677;28;20203;-76
2022/11/02 07:21:10;;;;;;;0.00;0.00;;;;;;;;;;5037286;28;20234;-76
2022/11/02 07:23:37;;;;;;;0.10;0.10;;;;;;;;;;5037243;28;20613;-77
2022/11/02 07:26:05;;;;;;;0.10;0.10;;;;;;;;;;5035091;28;20619;-75
2022/11/02 07:28:32;;;;;;;0.00;0.00;;;;;;;;;;5037155;28;20211;-76
2022/11/02 07:31:00;;;;;;;0.00;0.00;;;;;;;;;;5036212;28;20309;-77
2022/11/02 07:33:27;;;;;;;0.10;0.10;;;;;;;;;;5039895;28;20207;-75
2022/11/02 07:35:54;;;;;;;0.00;0.00;;;;;;;;;;5041471;28;20200;-77
2022/11/02 07:38:23;;;;;;;0.00;0.00;;;;;;;;;;5048896;28;20203;-76
2022/11/02 07:40:51;;;;;;;0.00;0.00;;;;;;;;;;5040380;28;20200;-76
2022/11/02 07:43:18;;;;;;;0.00;0.00;;;;;;;;;;5040574;28;20696;-76
2022/11/02 07:45:53;;;;;;;0.10;0.10;;;;;;;;;;5040099;28;20218;-76
2022/11/02 07:48:20;;;;;;;0.10;0.10;;;;;;;;;;5038944;28;20214;-77
2022/11/02 07:50:48;;;;;;;0.10;0.10;;;;;;;;;;5039989;28;20239;-76
2022/11/02 07:53:15;;;;;;;0.10;0.10;;;;;;;;;;5040086;28;20213;-76
2022/11/02 07:55:44;;;;;;;0.10;0.10;;;;;;;;;;5040574;28;20230;-77
2022/11/02 07:58:13;;;;;;;0.00;0.00;;;;;;;;;;5039680;28;20270;-76
2022/11/02 08:00:42;;;;;;;0.00;0.00;;;;;;;;;;5038834;28;20203;-77
2022/11/02 08:03:10;;;;;;;0.00;0.00;;;;;;;;;;5041919;28;20201;-77
2022/11/02 08:05:39;;;;;;;0.00;0.00;;;;;;;;;;5039822;28;20250;-75
2022/11/02 08:08:08;;;;;;;0.10;0.10;;;;;;;;;;5040483;28;20214;-77
2022/11/02 08:10:36;;;;;;;0.00;0.00;;;;;;;;;;5040273;28;20304;-75
2022/11/02 08:13:05;;;;;;;0.00;0.00;;;;;;;;;;5039673;28;20199;-77
2022/11/02 08:15:32;;;;;;;0.00;0.00;;;;;;;;;;5038057;28;20203;-76
2022/11/02 08:18:00;;;;;;;0.00;0.00;;;;;;;;;;5040629;28;20203;-76
2022/11/02 08:20:28;;;;;;;0.00;0.00;;;;;;;;;;5039022;28;20276;-75
2022/11/02 08:22:55;;;;;;;0.00;0.00;;;;;;;;;;5039675;28;20215;-77
2022/11/02 08:25:23;;;;;;;0.00;0.00;;;;;;;;;;5040651;28;20230;-77
2022/11/02 08:27:51;;;;;;;0.00;0.00;;;;;;;;;;5039362;28;20265;-77
2022/11/02 08:30:20;;;;;;;0.00;0.00;;;;;;;;;;5041428;28;20210;-77
2022/11/02 08:32:47;;;;;;;0.10;0.10;;;;;;;;;;5038115;28;20235;-76
2022/11/02 08:35:15;;;;;;;0.00;0.00;;;;;;;;;;5048493;28;20196;-76
2022/11/02 08:37:42;;;;;;;0.00;0.00;;;;;;;;;;5038539;28;20207;-78
2022/11/02 08:40:10;;;;;;;0.00;0.00;;;;;;;;;;5041415;28;20295;-76
2022/11/02 08:42:38;;;;;;;0.00;0.00;;;;;;;;;;5041353;28;20597;-77
2022/11/02 08:45:06;;;;;;;0.00;0.00;;;;;;;;;;5038537;28;20219;-77
2022/11/02 08:47:40;;;;;;;0.00;0.00;;;;;;;;;;5049236;28;20207;-77
2022/11/02 08:50:08;;;;;;;0.00;0.00;;;;;;;;;;5049736;28;20206;-76
2022/11/02 08:52:36;;;;;;;0.00;0.00;;;;;;;;;;5039142;28;20219;-77
2022/11/02 08:55:05;;;;;;;0.00;0.00;;;;;;;;;;5039980;28;20195;-76
2022/11/02 08:57:32;;;;;;;0.00;0.00;;;;;;;;;;5036649;28;20207;-76
2022/11/02 09:00:00;;;;;;;0.00;0.00;;;;;;;;;;5039480;28;20208;-77
2022/11/02 09:02:27;;;;;;;0.00;0.00;;;;;;;;;;5042998;28;20225;-76
2022/11/02 09:04:56;;;;;;;0.00;0.00;;;;;;;;;;5040543;28;20288;-77
2022/11/02 09:07:24;;;;;;;0.00;0.00;;;;;;;;;;5040426;28;20211;-76
2022/11/02 09:09:52;;;;;;;0.00;0.00;;;;;;;;;;5039301;28;20257;-76
2022/11/02 09:12:19;;;;;;;0.00;0.00;;;;;;;;;;5039601;28;20234;-75
2022/11/02 09:14:46;;;;;;;0.00;0.00;;;;;;;;;;5042180;28;20214;-78
2022/11/02 09:17:14;;;;;;;0.00;0.00;;;;;;;;;;5040125;28;20207;-76
2022/11/02 09:19:42;;;;;;;0.00;0.00;;;;;;;;;;5042026;28;20699;-78
2022/11/02 09:22:11;;;;;;;0.00;0.00;;;;;;;;;;5041108;28;20251;-78
2022/11/02 09:24:39;;;;;;;0.00;0.00;;;;;;;;;;5040523;28;20215;-75
2022/11/02 09:27:06;;;;;;;0.00;0.00;;;;;;;;;;5038761;28;20234;-76
2022/11/02 09:29:33;;;;;;;0.00;0.00;;;;;;;;;;5038548;28;20207;-75
2022/11/02 09:32:00;;;;;;;0.00;0.00;;;;;;;;;;5040229;28;20242;-77
2022/11/02 09:34:28;;;;;;;0.00;0.00;;;;;;;;;;5039539;28;20207;-76
2022/11/02 09:36:56;;;;;;;0.00;0.00;;;;;;;;;;5040362;28;20203;-76
2022/11/02 09:39:25;;;;;;;0.00;0.00;;;;;;;;;;5037937;28;20230;-77
2022/11/02 09:42:02;;;;;;;0.00;0.00;;;;;;;;;;5038885;28;20294;-76
2022/11/02 09:44:36;;;;;;;0.00;0.00;;;;;;;;;;5047305;28;20211;-77
2022/11/02 09:47:04;;;;;;;0.00;0.00;;;;;;;;;;5046758;28;20203;-78
2022/11/02 09:49:31;;;;;;;0.00;0.00;;;;;;;;;;5048171;28;20208;-77
2022/11/02 09:52:00;;;;;;;0.00;0.00;;;;;;;;;;5039153;28;20223;-78
2022/11/02 09:54:31;;;;;;;0.00;0.00;;;;;;;;;;5049359;28;20262;-76
2022/11/02 09:57:01;;;;;;;0.00;0.00;;;;;;;;;;5038213;28;20286;-78
2022/11/02 09:59:29;;;;;;;0.00;0.00;;;;;;;;;;5038563;28;20204;-76
2022/11/02 10:02:00;;;;;;;0.00;0.00;;;;;;;;;;5037250;28;20251;-76
2022/11/02 10:04:46;;;;;;;0.00;0.00;;;;;;;;;;5039124;28;20211;-77
2022/11/02 10:07:19;;;;;;;0.00;0.00;;;;;;;;;;5038851;28;20751;-78
2022/11/02 10:09:52;;;;;;;0.00;0.00;;;;;;;;;;5038155;28;20203;-76
2022/11/02 10:12:22;;;;;;;0.00;0.00;;;;;;;;;;5036503;28;20223;-77
2022/11/02 10:14:56;;;;;;;0.00;0.00;;;;;;;;;;5034889;28;20211;-76
2022/11/02 10:17:26;;;;;;;0.00;0.00;;;;;;;;;;5025814;28;20728;-76
2022/11/02 10:19:55;;;;;;;0.00;0.00;;;;;;;;;;5031752;28;20200;-76
2022/11/02 10:22:25;;;;;;;0.00;0.00;;;;;;;;;;5036496;28;20228;-77
2022/11/02 10:24:55;;;;;;;0.00;0.00;;;;;;;;;;5037836;28;20256;-75
2022/11/02 10:27:26;;;;;;;0.00;0.00;;;;;;;;;;5031729;28;20199;-76
2022/11/02 10:29:56;;;;;;;0.00;0.00;;;;;;;;;;5035603;28;20194;-76
2022/11/02 10:32:23;;;;;;;0.00;0.00;;;;;;;;;;5037838;28;20290;-76
2022/11/02 10:34:51;;;;;;;0.00;0.00;;;;;;;;;;5035137;28;20200;-76
2022/11/02 10:37:24;;;;;;;0.00;0.00;;;;;;;;;;5037421;28;20203;-76
2022/11/02 10:39:58;;;;;;;0.00;0.00;;;;;;;;;;5030859;28;20196;-79
2022/11/02 10:42:33;;;;;;;0.00;0.00;;;;;;;;;;5036459;28;20322;-79
2022/11/02 10:45:10;;;;;;;0.00;0.00;;;;;;;;;;5036214;28;20233;-76
2022/11/02 10:47:40;;;;;;;0.00;0.00;;;;;;;;;;5038302;28;20206;-75
2022/11/02 10:50:18;;;;;;;0.00;0.00;;;;;;;;;;5045217;28;20226;-76
2022/11/02 10:52:46;;;;;;;0.00;0.00;;;;;;;;;;5036431;28;20251;-77
2022/11/02 10:55:19;;;;;;;0.00;0.00;;;;;;;;;;5038984;28;20207;-79
2022/11/02 10:57:48;;;;;;;0.00;0.00;;;;;;;;;;5036541;28;20219;-80
2022/11/02 11:00:26;;;;;;;0.00;0.00;;;;;;;;;;5029212;28;20214;-79
2022/11/02 11:03:04;;;;;;;0.00;0.00;;;;;;;;;;5036992;28;20305;-81
2022/11/02 11:05:32;;;;;;;0.00;0.00;;;;;;;;;;5037599;28;20222;-79
2022/11/02 11:08:00;;;;;;;0.00;0.00;;;;;;;;;;5037349;28;20204;-78
2022/11/02 11:10:31;;;;;;;0.00;0.00;;;;;;;;;;5040623;28;20207;-80
2022/11/02 11:12:58;;;;;;;0.00;0.00;;;;;;;;;;5053501;28;20206;-79
2022/11/02 11:15:27;;;;;;;0.00;0.00;;;;;;;;;;5040684;28;20191;-80
2022/11/02 11:17:55;;;;;;;0.00;0.00;;;;;;;;;;5035468;28;20235;-80
2022/11/02 11:20:31;;;;;;;0.00;0.00;;;;;;;;;;5041775;28;20212;-79
2022/11/02 11:23:09;;;;;;;0.00;0.00;;;;;;;;;;5055635;28;20209;-79
2022/11/02 11:25:40;;;;;;;0.00;0.00;;;;;;;;;;5033867;28;20219;-78
2022/11/02 11:28:21;;;;;;;0.00;0.00;;;;;;;;;;5040012;28;20199;-80
2022/11/02 11:30:51;;;;;;;0.00;0.00;;;;;;;;;;5039085;28;20230;-80
2022/11/02 11:33:20;;;;;;;0.00;0.00;;;;;;;;;;5040847;28;20704;-78
2022/11/02 11:35:49;;;;;;;0.00;0.00;;;;;;;;;;5048977;28;20310;-79
2022/11/02 11:38:18;;;;;;;0.00;0.00;;;;;;;;;;5041648;28;20204;-79
2022/11/02 11:40:52;;;;;;;0.00;0.00;;;;;;;;;;5040831;28;20211;-79
2022/11/02 11:43:21;;;;;;;0.00;0.00;;;;;;;;;;5040379;28;20318;-78
2022/11/02 11:45:55;;;;;;;0.00;0.00;;;;;;;;;;5039522;28;20223;-80
2022/11/02 11:48:28;;;;;;;0.00;0.00;;;;;;;;;;5040945;28;20213;-79
2022/11/02 11:50:56;;;;;;;0.00;0.00;;;;;;;;;;5041398;28;20219;-80
2022/11/02 11:53:24;;;;;;;0.00;0.00;;;;;;;;;;5039214;28;20208;-79
2022/11/02 11:55:54;;;;;;;0.00;0.00;;;;;;;;;;5041087;28;20211;-79
2022/11/02 11:58:22;;;;;;;0.00;0.00;;;;;;;;;;5035996;28;20219;-78
2022/11/02 12:01:09;;;;;;;0.00;0.00;;;;;;;;;;5040229;28;20203;-76
2022/11/02 12:03:50;;;;;;;0.00;0.00;;;;;;;;;;5040970;28;20199;-76
2022/11/02 12:06:22;;;;;;;0.00;0.00;;;;;;;;;;5041038;28;20281;-75
2022/11/02 12:08:54;;;;;;;0.00;0.00;;;;;;;;;;5050041;28;20199;-76
2022/11/02 12:11:32;;;;;;;0.00;0.00;;;;;;;;;;5041147;28;20219;-76
2022/11/02 12:14:09;;;;;;;0.00;0.00;;;;;;;;;;5048945;28;20195;-77
2022/11/02 12:16:51;;;;;;;0.00;0.00;;;;;;;;;;5046243;28;20195;-76
2022/11/02 12:19:23;;;;;;;0.00;0.00;;;;;;;;;;5051756;28;20205;-76
2022/11/02 12:22:01;;;;;;;0.00;0.00;;;;;;;;;;5039219;28;20234;-77
2022/11/02 12:24:38;;;;;;;0.00;0.00;;;;;;;;;;5053382;28;20235;-77
2022/11/02 12:27:16;;;;;;;0.00;0.00;;;;;;;;;;5050756;28;20894;-75
2022/11/02 12:29:57;;;;;;;0.00;0.00;;;;;;;;;;5037984;28;20285;-76
2022/11/02 12:32:35;;;;;;;0.00;0.00;;;;;;;;;;5047676;28;20266;-76
2022/11/02 12:35:09;;;;;;;0.00;0.00;;;;;;;;;;5040896;28;20195;-76
2022/11/02 12:37:44;;;;;;;0.00;0.00;;;;;;;;;;5039290;28;20207;-75
2022/11/02 12:40:18;;;;;;;0.00;0.00;;;;;;;;;;5041509;28;20300;-76
2022/11/02 12:42:52;;;;;;;0.00;0.00;;;;;;;;;;5047532;28;20230;-77
2022/11/02 12:45:23;;;;;;;0.00;0.00;;;;;;;;;;5047144;28;20256;-75
2022/11/02 12:47:55;;;;;;;0.00;0.00;;;;;;;;;;5037772;28;20203;-76
2022/11/02 12:50:28;;;;;;;0.00;0.00;;;;;;;;;;5040218;28;20211;-75
2022/11/02 12:53:03;;;;;;;0.00;0.00;;;;;;;;;;5037847;28;20234;-76
2022/11/02 12:55:32;;;;;;;0.00;0.00;;;;;;;;;;5044824;28;20203;-76
2022/11/02 12:58:04;;;;;;;0.00;0.00;;;;;;;;;;5030440;28;20298;-76
2022/11/02 13:00:34;;;;;;;0.00;0.00;;;;;;;;;;5037059;28;20207;-76
2022/11/02 13:03:05;;;;;;;0.00;0.00;;;;;;;;;;5040276;28;20199;-76
2022/11/02 13:05:35;;;;;;;0.00;0.00;;;;;;;;;;5046980;28;20222;-79
2022/11/02 13:08:04;;;;;;;0.00;0.00;;;;;;;;;;5038074;28;20192;-79
2022/11/02 13:10:35;;;;;;;0.00;0.00;;;;;;;;;;5036336;28;20310;-79
2022/11/02 13:13:05;;;;;;;0.00;0.00;;;;;;;;;;5039986;28;20312;-79
2022/11/02 13:15:35;;;;;;;0.00;0.00;;;;;;;;;;5026736;28;20206;-78
2022/11/02 13:18:05;;;;;;;0.00;0.00;;;;;;;;;;5038023;28;20203;-79
2022/11/02 13:20:36;;;;;;;0.00;0.00;;;;;;;;;;5037261;28;20195;-78
2022/11/02 13:23:04;;;;;;;0.00;0.00;;;;;;;;;;5040087;28;20192;-78
2022/11/02 13:25:35;;;;;;;0.00;0.00;;;;;;;;;;5036283;28;20290;-78
2022/11/02 13:28:06;;;;;;;0.00;0.00;;;;;;;;;;5038507;28;20615;-78
2022/11/02 13:30:34;;;;;;;0.00;0.00;;;;;;;;;;5039263;28;20203;-78
2022/11/02 13:33:04;;;;;;;0.00;0.00;;;;;;;;;;5036993;28;20246;-78
2022/11/02 13:35:33;;;;;;;0.00;0.00;;;;;;;;;;5037679;28;20266;-78
2022/11/02 13:38:03;;;;;;;0.00;0.00;;;;;;;;;;5047614;28;20302;-78
2022/11/02 13:40:34;;;;;;;0.00;0.00;;;;;;;;;;5046822;28;20203;-77
2022/11/02 13:43:12;;;;;;;0.00;0.00;;;;;;;;;;5038187;28;20195;-78
2022/11/02 13:45:46;;;;;;;0.00;0.00;;;;;;;;;;5046822;28;20214;-78
2022/11/02 13:48:20;;;;;;;0.00;0.00;;;;;;;;;;5034844;28;20767;-78
2022/11/02 13:50:50;;;;;;;0.00;0.00;;;;;;;;;;5036840;28;20203;-79
2022/11/02 13:53:20;;;;;;;0.00;0.00;;;;;;;;;;5036201;28;20667;-78
2022/11/02 13:55:53;;;;;;;0.00;0.00;;;;;;;;;;5025810;28;20218;-78
2022/11/02 13:58:25;;;;;;;0.00;0.00;;;;;;;;;;5048073;28;20565;-81
2022/11/02 14:00:54;;;;;;;0.00;0.00;;;;;;;;;;5040683;28;20203;-79
2022/11/02 14:03:23;;;;;;;0.00;0.00;;;;;;;;;;5038442;28;20231;-79
2022/11/02 14:05:53;;;;;;;0.00;0.00;;;;;;;;;;5035574;28;20199;-76
2022/11/02 14:08:23;;;;;;;0.00;0.00;;;;;;;;;;5037594;28;20207;-75
2022/11/02 14:11:03;;;;;;;0.00;0.00;;;;;;;;;;5033325;28;20257;-75
2022/11/02 14:13:50;;;;;;;0.00;0.00;;;;;;;;;;5029215;28;20200;-75
2022/11/02 14:16:32;;;;;;;0.00;0.00;;;;;;;;;;5028407;28;20199;-75
2022/11/02 14:19:14;;;;;;;0.00;0.00;;;;;;;;;;5039996;28;20242;-74
2022/11/02 14:21:44;;;;;;;0.00;0.00;;;;;;;;;;5035205;28;20231;-74
2022/11/02 14:24:30;;;;;;;0.00;0.00;;;;;;;;;;5044316;28;20199;-75
2022/11/02 14:26:59;;;;;;;0.00;0.00;;;;;;;;;;5035233;28;20230;-76
2022/11/02 14:29:37;;;;;;;0.00;0.00;;;;;;;;;;5049108;28;20212;-75
2022/11/02 14:32:10;;;;;;;0.00;0.00;;;;;;;;;;5044343;28;20285;-76
2022/11/02 14:34:56;;;;;;;0.00;0.00;;;;;;;;;;5035399;28;20208;-76
2022/11/02 14:37:38;;;;;;;0.00;0.00;;;;;;;;;;5045638;28;20219;-75
2022/11/02 14:40:11;;;;;;;0.00;0.00;;;;;;;;;;5030691;28;20202;-74
2022/11/02 14:42:47;;;;;;;0.00;0.00;;;;;;;;;;5044220;28;20708;-73
2022/11/02 14:45:22;;;;;;;0.00;0.00;;;;;;;;;;5049209;28;20210;-74
2022/11/02 14:47:56;;;;;;;0.00;0.00;;;;;;;;;;5031590;28;20239;-74
2022/11/02 14:50:23;;;;;;;0.00;0.00;;;;;;;;;;5050773;28;20227;-74
2022/11/02 14:52:57;;;;;;;0.00;0.00;;;;;;;;;;5035464;28;20707;-74
2022/11/02 14:55:26;;;;;;;0.00;0.00;;;;;;;;;;5047997;28;20231;-75
2022/11/02 14:57:56;;;;;;;0.00;0.00;;;;;;;;;;5029704;28;20207;-74
2022/11/02 15:00:24;;;;;;;0.00;0.00;;;;;;;;;;5029900;28;20292;-76
2022/11/02 15:02:52;;;;;;;0.00;0.00;;;;;;;;;;5036472;28;20218;-75
2022/11/02 15:05:23;;;;;;;0.00;0.00;;;;;;;;;;5036787;28;20211;-75
2022/11/02 15:07:53;;;;;;;0.00;0.00;;;;;;;;;;5047682;28;20259;-74
2022/11/02 15:10:40;;;;;;;0.00;0.00;;;;;;;;;;5037463;28;20218;-75
2022/11/02 15:13:24;;;;;;;0.00;0.00;;;;;;;;;;5032794;28;20210;-74
2022/11/02 15:16:07;;;;;;;0.00;0.00;;;;;;;;;;5033501;28;20207;-74
2022/11/02 15:18:35;;;;;;;0.00;0.00;;;;;;;;;;5042511;28;20202;-74